sensor_id;sensor_type;location;lat;lon;timestamp;P1;durP1;ratioP1;P2;durP2;ratioP2
24084;SDS011;12268;52.110;5.548;2022-07-25T00:01:30;11.68;;;9.18;;
24084;SDS011;12268;52.110;5.548;2022-07-25T00:03:56;12.90;;;9.98;;
24084;SDS011;12268;52.110;5.548;2022-07-25T00:06:21;12.32;;;9.68;;
24084;SDS011;12268;52.110;5.548;2022-07-25T00:08:47;14.40;;;10.00;;
24084;SDS011;12268;52.110;5.548;2022-07-25T00:11:12;11.15;;;8.82;;
24084;SDS011;12268;52.110;5.548;2022-07-25T00:13:38;12.63;;;9.77;;
24084;SDS011;12268;52.110;5.548;2022-07-25T00:16:04;12.27;;;9.20;;
24084;SDS011;12268;52.110;5.548;2022-07-25T00:18:29;11.27;;;9.23;;
24084;SDS011;12268;52.110;5.548;2022-07-25T00:20:55;12.65;;;9.90;;
24084;SDS011;12268;52.110;5.548;2022-07-25T00:23:20;12.02;;;9.50;;
24084;SDS011;12268;52.110;5.548;2022-07-25T00:25:46;13.02;;;9.90;;
24084;SDS011;12268;52.110;5.548;2022-07-25T00:28:12;14.30;;;9.90;;
24084;SDS011;12268;52.110;5.548;2022-07-25T00:30:37;11.70;;;9.13;;
24084;SDS011;12268;52.110;5.548;2022-07-25T00:33:03;13.02;;;9.48;;
24084;SDS011;12268;52.110;5.548;2022-07-25T00:35:28;13.20;;;9.90;;
24084;SDS011;12268;52.110;5.548;2022-07-25T00:37:54;13.95;;;9.80;;
24084;SDS011;12268;52.110;5.548;2022-07-25T00:40:19;13.18;;;9.82;;
24084;SDS011;12268;52.110;5.548;2022-07-25T00:42:45;12.02;;;9.85;;
24084;SDS011;12268;52.110;5.548;2022-07-25T00:45:11;13.48;;;10.52;;
24084;SDS011;12268;52.110;5.548;2022-07-25T00:47:36;13.77;;;9.52;;
24084;SDS011;12268;52.110;5.548;2022-07-25T00:50:02;13.90;;;10.35;;
24084;SDS011;12268;52.110;5.548;2022-07-25T00:52:28;16.13;;;10.48;;
24084;SDS011;12268;52.110;5.548;2022-07-25T00:54:54;12.65;;;10.00;;
24084;SDS011;12268;52.110;5.548;2022-07-25T00:57:20;15.32;;;9.77;;
24084;SDS011;12268;52.110;5.548;2022-07-25T00:59:46;14.60;;;10.60;;
24084;SDS011;12268;52.110;5.548;2022-07-25T01:02:12;14.32;;;10.50;;
24084;SDS011;12268;52.110;5.548;2022-07-25T01:04:38;14.60;;;10.05;;
24084;SDS011;12268;52.110;5.548;2022-07-25T01:07:04;16.83;;;10.43;;
24084;SDS011;12268;52.110;5.548;2022-07-25T01:09:30;14.25;;;10.55;;
24084;SDS011;12268;52.110;5.548;2022-07-25T01:11:56;16.75;;;10.65;;
24084;SDS011;12268;52.110;5.548;2022-07-25T01:14:22;14.48;;;11.50;;
24084;SDS011;12268;52.110;5.548;2022-07-25T01:16:48;14.75;;;11.40;;
24084;SDS011;12268;52.110;5.548;2022-07-25T01:19:13;15.60;;;11.93;;
24084;SDS011;12268;52.110;5.548;2022-07-25T01:21:39;15.30;;;11.60;;
24084;SDS011;12268;52.110;5.548;2022-07-25T01:24:07;15.63;;;11.65;;
24084;SDS011;12268;52.110;5.548;2022-07-25T01:26:33;17.10;;;11.50;;
24084;SDS011;12268;52.110;5.548;2022-07-25T01:28:59;16.52;;;11.50;;
24084;SDS011;12268;52.110;5.548;2022-07-25T01:31:24;16.02;;;11.50;;
24084;SDS011;12268;52.110;5.548;2022-07-25T01:33:50;16.42;;;12.40;;
24084;SDS011;12268;52.110;5.548;2022-07-25T01:36:16;14.90;;;11.70;;
24084;SDS011;12268;52.110;5.548;2022-07-25T01:38:41;20.75;;;12.75;;
24084;SDS011;12268;52.110;5.548;2022-07-25T01:41:07;16.45;;;12.40;;
24084;SDS011;12268;52.110;5.548;2022-07-25T01:43:32;19.30;;;12.50;;
24084;SDS011;12268;52.110;5.548;2022-07-25T01:45:58;17.00;;;13.13;;
24084;SDS011;12268;52.110;5.548;2022-07-25T01:48:24;18.30;;;13.18;;
24084;SDS011;12268;52.110;5.548;2022-07-25T01:50:50;19.15;;;13.25;;
24084;SDS011;12268;52.110;5.548;2022-07-25T01:53:15;19.40;;;12.73;;
24084;SDS011;12268;52.110;5.548;2022-07-25T01:55:43;17.15;;;12.43;;
24084;SDS011;12268;52.110;5.548;2022-07-25T01:58:09;21.30;;;12.50;;
24084;SDS011;12268;52.110;5.548;2022-07-25T02:00:35;18.45;;;12.70;;
24084;SDS011;12268;52.110;5.548;2022-07-25T02:03:01;16.73;;;12.68;;
24084;SDS011;12268;52.110;5.548;2022-07-25T02:05:45;19.08;;;13.95;;
24084;SDS011;12268;52.110;5.548;2022-07-25T02:08:10;20.17;;;13.68;;
24084;SDS011;12268;52.110;5.548;2022-07-25T02:10:36;19.63;;;13.68;;
24084;SDS011;12268;52.110;5.548;2022-07-25T02:13:01;21.42;;;14.10;;
24084;SDS011;12268;52.110;5.548;2022-07-25T02:15:27;19.67;;;13.65;;
24084;SDS011;12268;52.110;5.548;2022-07-25T02:17:53;19.67;;;14.63;;
24084;SDS011;12268;52.110;5.548;2022-07-25T02:20:18;20.65;;;14.30;;
24084;SDS011;12268;52.110;5.548;2022-07-25T02:22:44;18.15;;;13.30;;
24084;SDS011;12268;52.110;5.548;2022-07-25T02:25:09;18.20;;;13.40;;
24084;SDS011;12268;52.110;5.548;2022-07-25T02:27:35;19.33;;;13.80;;
24084;SDS011;12268;52.110;5.548;2022-07-25T02:30:00;21.13;;;14.23;;
24084;SDS011;12268;52.110;5.548;2022-07-25T02:32:26;22.20;;;14.25;;
24084;SDS011;12268;52.110;5.548;2022-07-25T02:34:52;20.17;;;14.93;;
24084;SDS011;12268;52.110;5.548;2022-07-25T02:37:17;21.40;;;14.45;;
24084;SDS011;12268;52.110;5.548;2022-07-25T02:39:43;22.30;;;14.50;;
24084;SDS011;12268;52.110;5.548;2022-07-25T02:42:08;20.55;;;14.35;;
24084;SDS011;12268;52.110;5.548;2022-07-25T02:44:34;16.50;;;13.55;;
24084;SDS011;12268;52.110;5.548;2022-07-25T02:46:59;21.13;;;14.23;;
24084;SDS011;12268;52.110;5.548;2022-07-25T02:49:25;20.50;;;13.98;;
24084;SDS011;12268;52.110;5.548;2022-07-25T02:51:50;18.90;;;13.70;;
24084;SDS011;12268;52.110;5.548;2022-07-25T02:54:16;19.70;;;13.35;;
24084;SDS011;12268;52.110;5.548;2022-07-25T02:56:41;18.10;;;13.45;;
24084;SDS011;12268;52.110;5.548;2022-07-25T02:59:07;17.23;;;13.32;;
24084;SDS011;12268;52.110;5.548;2022-07-25T03:01:32;20.10;;;14.00;;
24084;SDS011;12268;52.110;5.548;2022-07-25T03:03:58;19.70;;;14.93;;
24084;SDS011;12268;52.110;5.548;2022-07-25T03:06:23;17.98;;;13.85;;
24084;SDS011;12268;52.110;5.548;2022-07-25T03:08:49;21.38;;;14.57;;
24084;SDS011;12268;52.110;5.548;2022-07-25T03:11:15;21.55;;;15.18;;
24084;SDS011;12268;52.110;5.548;2022-07-25T03:13:40;21.65;;;14.48;;
